sensor_id;sensor_type;location;lat;lon;timestamp;P1;durP1;ratioP1;P2;durP2;ratioP2
60718;SDS011;46567;51.660;5.824;2023-06-01T00:02:10;13.6;;;7.9;;
60718;SDS011;46567;51.660;5.824;2023-06-01T00:07:10;12.3;;;8.2;;
60718;SDS011;46567;51.660;5.824;2023-06-01T00:12:10;13.5;;;8.8;;
60718;SDS011;46567;51.660;5.824;2023-06-01T00:17:10;15.1;;;8.4;;
60718;SDS011;46567;51.660;5.824;2023-06-01T00:22:11;13.0;;;8.4;;
60718;SDS011;46567;51.660;5.824;2023-06-01T00:27:10;14.7;;;8.5;;
60718;SDS011;46567;51.660;5.824;2023-06-01T00:32:10;13.7;;;8.0;;
60718;SDS011;46567;51.660;5.824;2023-06-01T00:37:10;14.2;;;8.3;;
60718;SDS011;46567;51.660;5.824;2023-06-01T00:42:11;12.9;;;8.1;;
60718;SDS011;46567;51.660;5.824;2023-06-01T00:47:10;15.0;;;8.5;;
60718;SDS011;46567;51.660;5.824;2023-06-01T00:52:10;12.8;;;8.1;;
60718;SDS011;46567;51.660;5.824;2023-06-01T00:57:10;14.7;;;7.6;;
60718;SDS011;46567;51.660;5.824;2023-06-01T01:02:10;12.9;;;7.6;;
60718;SDS011;46567;51.660;5.824;2023-06-01T01:07:15;11.4;;;7.3;;
60718;SDS011;46567;51.660;5.824;2023-06-01T01:12:17;12.8;;;7.5;;
60718;SDS011;46567;51.660;5.824;2023-06-01T01:17:22;13.0;;;7.3;;
60718;SDS011;46567;51.660;5.824;2023-06-01T01:22:43;13.6;;;7.1;;
60718;SDS011;46567;51.660;5.824;2023-06-01T01:32:10;12.9;;;6.7;;
60718;SDS011;46567;51.660;5.824;2023-06-01T01:37:11;10.1;;;7.0;;
60718;SDS011;46567;51.660;5.824;2023-06-01T01:42:10;11.1;;;6.8;;
60718;SDS011;46567;51.660;5.824;2023-06-01T01:47:19;10.0;;;7.1;;
60718;SDS011;46567;51.660;5.824;2023-06-01T01:52:14;11.7;;;6.7;;
60718;SDS011;46567;51.660;5.824;2023-06-01T01:57:10;13.4;;;7.3;;
60718;SDS011;46567;51.660;5.824;2023-06-01T02:02:10;16.8;;;7.9;;
60718;SDS011;46567;51.660;5.824;2023-06-01T02:07:10;12.9;;;7.5;;
60718;SDS011;46567;51.660;5.824;2023-06-01T02:12:10;11.9;;;7.6;;
60718;SDS011;46567;51.660;5.824;2023-06-01T02:17:10;12.0;;;6.8;;
60718;SDS011;46567;51.660;5.824;2023-06-01T02:22:10;14.1;;;7.6;;
60718;SDS011;46567;51.660;5.824;2023-06-01T02:27:10;14.2;;;8.0;;
60718;SDS011;46567;51.660;5.824;2023-06-01T02:32:10;14.0;;;7.7;;
60718;SDS011;46567;51.660;5.824;2023-06-01T02:37:10;16.1;;;8.8;;
60718;SDS011;46567;51.660;5.824;2023-06-01T02:42:10;15.7;;;9.4;;
60718;SDS011;46567;51.660;5.824;2023-06-01T02:47:10;12.4;;;8.3;;
60718;SDS011;46567;51.660;5.824;2023-06-01T02:52:10;12.5;;;9.1;;
60718;SDS011;46567;51.660;5.824;2023-06-01T02:57:10;18.1;;;10.0;;
60718;SDS011;46567;51.660;5.824;2023-06-01T03:02:10;12.5;;;8.4;;
60718;SDS011;46567;51.660;5.824;2023-06-01T03:07:10;11.9;;;7.9;;
60718;SDS011;46567;51.660;5.824;2023-06-01T03:12:10;13.7;;;8.5;;
60718;SDS011;46567;51.660;5.824;2023-06-01T03:17:10;14.5;;;8.5;;
60718;SDS011;46567;51.660;5.824;2023-06-01T03:22:10;11.8;;;7.8;;
60718;SDS011;46567;51.660;5.824;2023-06-01T03:27:10;13.2;;;7.9;;
60718;SDS011;46567;51.660;5.824;2023-06-01T03:32:10;13.4;;;7.3;;
60718;SDS011;46567;51.660;5.824;2023-06-01T03:37:10;14.5;;;8.0;;
60718;SDS011;46567;51.660;5.824;2023-06-01T03:42:11;12.3;;;7.6;;
60718;SDS011;46567;51.660;5.824;2023-06-01T03:47:10;13.9;;;8.2;;
60718;SDS011;46567;51.660;5.824;2023-06-01T03:52:10;14.6;;;9.0;;
60718;SDS011;46567;51.660;5.824;2023-06-01T03:57:10;15.0;;;8.0;;
60718;SDS011;46567;51.660;5.824;2023-06-01T04:02:10;15.2;;;8.7;;
60718;SDS011;46567;51.660;5.824;2023-06-01T04:07:10;12.5;;;8.2;;
60718;SDS011;46567;51.660;5.824;2023-06-01T04:12:10;13.6;;;9.3;;
60718;SDS011;46567;51.660;5.824;2023-06-01T04:17:10;15.2;;;7.8;;
60718;SDS011;46567;51.660;5.824;2023-06-01T04:22:10;16.2;;;9.1;;
60718;SDS011;46567;51.660;5.824;2023-06-01T04:27:10;14.6;;;9.1;;
60718;SDS011;46567;51.660;5.824;2023-06-01T04:32:10;14.7;;;8.5;;
60718;SDS011;46567;51.660;5.824;2023-06-01T04:37:10;13.9;;;9.2;;
60718;SDS011;46567;51.660;5.824;2023-06-01T04:42:10;15.1;;;9.4;;
60718;SDS011;46567;51.660;5.824;2023-06-01T04:47:10;16.3;;;9.6;;
60718;SDS011;46567;51.660;5.824;2023-06-01T04:52:10;15.9;;;10.3;;
60718;SDS011;46567;51.660;5.824;2023-06-01T04:57:11;16.1;;;9.5;;
60718;SDS011;46567;51.660;5.824;2023-06-01T05:02:10;13.9;;;9.3;;
60718;SDS011;46567;51.660;5.824;2023-06-01T05:07:10;13.8;;;8.8;;
60718;SDS011;46567;51.660;5.824;2023-06-01T05:12:10;17.4;;;8.8;;
60718;SDS011;46567;51.660;5.824;2023-06-01T05:17:10;13.7;;;8.5;;
60718;SDS011;46567;51.660;5.824;2023-06-01T05:22:10;13.7;;;8.7;;
60718;SDS011;46567;51.660;5.824;2023-06-01T05:27:11;15.2;;;8.3;;
60718;SDS011;46567;51.660;5.824;2023-06-01T05:32:11;16.3;;;8.9;;
60718;SDS011;46567;51.660;5.824;2023-06-01T05:37:11;14.2;;;8.6;;
60718;SDS011;46567;51.660;5.824;2023-06-01T05:42:10;20.2;;;9.2;;
60718;SDS011;46567;51.660;5.824;2023-06-01T05:47:11;15.7;;;9.3;;
60718;SDS011;46567;51.660;5.824;2023-06-01T05:52:11;14.2;;;8.6;;
60718;SDS011;46567;51.660;5.824;2023-06-01T05:57:10;14.9;;;9.1;;
60718;SDS011;46567;51.660;5.824;2023-06-01T06:02:11;15.5;;;8.4;;
60718;SDS011;46567;51.660;5.824;2023-06-01T06:07:11;13.1;;;7.7;;
60718;SDS011;46567;51.660;5.824;2023-06-01T06:12:11;14.6;;;8.0;;
60718;SDS011;46567;51.660;5.824;2023-06-01T06:17:10;15.7;;;7.2;;
60718;SDS011;46567;51.660;5.824;2023-06-01T06:22:10;13.6;;;7.7;;
60718;SDS011;46567;51.660;5.824;2023-06-01T06:27:10;12.9;;;7.6;;
60718;SDS011;46567;51.660;5.824;2023-06-01T06:32:10;13.0;;;7.3;;
60718;SDS011;46567;51.660;5.824;2023-06-01T06:37:11;14.7;;;7.3;;
60718;SDS011;46567;51.660;5.824;2023-06-01T06:42:10;13.2;;;7.5;;
60718;SDS011;46567;51.660;5.824;2023-06-01T06:47:11;14.0;;;7.2;;
60718;SDS011;46567;51.660;5.824;2023-06-01T06:52:10;13.7;;;7.4;;
60718;SDS011;46567;51.660;5.824;2023-06-01T06:57:10;11.8;;;7.1;;
60718;SDS011;46567;51.660;5.824;2023-06-01T07:02:10;12.9;;;7.4;;
60718;SDS011;46567;51.660;5.824;2023-06-01T07:07:11;12.9;;;7.0;;
60718;SDS011;46567;51.660;5.824;2023-06-01T07:12:10;15.1;;;6.9;;
60718;SDS011;46567;51.660;5.824;2023-06-01T07:17:10;10.4;;;6.6;;
60718;SDS011;46567;51.660;5.824;2023-06-01T07:22:10;13.3;;;7.2;;
60718;SDS011;46567;51.660;5.824;2023-06-01T07:27:11;14.6;;;7.3;;
60718;SDS011;46567;51.660;5.824;2023-06-01T07:32:11;10.1;;;6.5;;
60718;SDS011;46567;51.660;5.824;2023-06-01T07:37:11;11.9;;;7.3;;
60718;SDS011;46567;51.660;5.824;2023-06-01T07:42:10;13.5;;;7.8;;
60718;SDS011;46567;51.660;5.824;2023-06-01T07:47:11;15.2;;;7.7;;
60718;SDS011;46567;51.660;5.824;2023-06-01T07:52:11;12.9;;;6.9;;
60718;SDS011;46567;51.660;5.824;2023-06-01T07:57:10;12.5;;;7.5;;
60718;SDS011;46567;51.660;5.824;2023-06-01T08:02:11;14.1;;;7.8;;
60718;SDS011;46567;51.660;5.824;2023-06-01T08:07:11;17.0;;;7.7;;
60718;SDS011;46567;51.660;5.824;2023-06-01T08:12:11;11.7;;;7.3;;
60718;SDS011;46567;51.660;5.824;2023-06-01T08:17:11;11.4;;;7.5;;
60718;SDS011;46567;51.660;5.824;2023-06-01T08:22:11;14.0;;;8.0;;
60718;SDS011;46567;51.660;5.824;2023-06-01T08:27:18;15.2;;;7.8;;
60718;SDS011;46567;51.660;5.824;2023-06-01T08:32:11;11.2;;;6.9;;
60718;SDS011;46567;51.660;5.824;2023-06-01T08:37:11;14.1;;;7.7;;
60718;SDS011;46567;51.660;5.824;2023-06-01T08:42:13;14.1;;;7.8;;
60718;SDS011;46567;51.660;5.824;2023-06-01T08:47:12;10.2;;;7.3;;
60718;SDS011;46567;51.660;5.824;2023-06-01T08:52:11;12.4;;;6.9;;
60718;SDS011;46567;51.660;5.824;2023-06-01T08:57:11;11.5;;;7.0;;
60718;SDS011;46567;51.660;5.824;2023-06-01T09:02:11;12.0;;;7.3;;
60718;SDS011;46567;51.660;5.824;2023-06-01T09:07:11;14.2;;;7.7;;
60718;SDS011;46567;51.660;5.824;2023-06-01T09:12:30;13.6;;;8.2;;
60718;SDS011;46567;51.660;5.824;2023-06-01T09:17:12;11.9;;;7.6;;
60718;SDS011;46567;51.660;5.824;2023-06-01T09:22:11;15.9;;;7.5;;
60718;SDS011;46567;51.660;5.824;2023-06-01T09:27:11;11.9;;;7.7;;
60718;SDS011;46567;51.660;5.824;2023-06-01T09:32:11;13.6;;;7.4;;
60718;SDS011;46567;51.660;5.824;2023-06-01T09:37:11;12.9;;;7.9;;
60718;SDS011;46567;51.660;5.824;2023-06-01T09:42:11;11.6;;;7.6;;
60718;SDS011;46567;51.660;5.824;2023-06-01T09:47:11;13.1;;;7.7;;
60718;SDS011;46567;51.660;5.824;2023-06-01T09:52:11;12.4;;;7.3;;
60718;SDS011;46567;51.660;5.824;2023-06-01T09:57:11;14.3;;;7.8;;
60718;SDS011;46567;51.660;5.824;2023-06-01T10:02:12;13.6;;;7.6;;
60718;SDS011;46567;51.660;5.824;2023-06-01T10:07:13;11.3;;;7.6;;
60718;SDS011;46567;51.660;5.824;2023-06-01T10:12:11;10.7;;;7.2;;
60718;SDS011;46567;51.660;5.824;2023-06-01T10:17:11;14.0;;;7.5;;
60718;SDS011;46567;51.660;5.824;2023-06-01T10:22:11;15.0;;;7.5;;
60718;SDS011;46567;51.660;5.824;2023-06-01T10:27:12;10.7;;;7.8;;
60718;SDS011;46567;51.660;5.824;2023-06-01T10:32:40;12.7;;;7.7;;
60718;SDS011;46567;51.660;5.824;2023-06-01T10:37:17;12.8;;;8.1;;
60718;SDS011;46567;51.660;5.824;2023-06-01T10:42:39;11.3;;;7.1;;
60718;SDS011;46567;51.660;5.824;2023-06-01T10:47:44;10.1;;;6.9;;
60718;SDS011;46567;51.660;5.824;2023-06-01T10:52:25;10.0;;;6.4;;
60718;SDS011;46567;51.660;5.824;2023-06-01T10:57:26;10.3;;;7.0;;
60718;SDS011;46567;51.660;5.824;2023-06-01T11:02:11;11.5;;;7.7;;
60718;SDS011;46567;51.660;5.824;2023-06-01T11:07:35;10.1;;;6.9;;
60718;SDS011;46567;51.660;5.824;2023-06-01T11:12:11;12.5;;;7.4;;
60718;SDS011;46567;51.660;5.824;2023-06-01T11:17:28;10.5;;;6.8;;
60718;SDS011;46567;51.660;5.824;2023-06-01T11:22:11;11.3;;;6.6;;
60718;SDS011;46567;51.660;5.824;2023-06-01T11:27:11;9.5;;;6.2;;
60718;SDS011;46567;51.660;5.824;2023-06-01T11:32:11;10.1;;;6.7;;
60718;SDS011;46567;51.660;5.824;2023-06-01T11:37:12;10.4;;;6.9;;
60718;SDS011;46567;51.660;5.824;2023-06-01T11:42:11;10.4;;;6.5;;
60718;SDS011;46567;51.660;5.824;2023-06-01T11:47:11;11.9;;;6.8;;
60718;SDS011;46567;51.660;5.824;2023-06-01T11:52:11;10.6;;;6.2;;
60718;SDS011;46567;51.660;5.824;2023-06-01T11:57:11;11.4;;;5.6;;
60718;SDS011;46567;51.660;5.824;2023-06-01T12:02:19;9.6;;;6.0;;
60718;SDS011;46567;51.660;5.824;2023-06-01T12:07:11;11.1;;;5.9;;
60718;SDS011;46567;51.660;5.824;2023-06-01T12:12:11;10.6;;;6.3;;
60718;SDS011;46567;51.660;5.824;2023-06-01T12:17:11;8.7;;;5.7;;
60718;SDS011;46567;51.660;5.824;2023-06-01T12:22:11;9.3;;;4.6;;
60718;SDS011;46567;51.660;5.824;2023-06-01T12:27:12;10.8;;;4.7;;
60718;SDS011;46567;51.660;5.824;2023-06-01T12:32:11;7.2;;;4.4;;
60718;SDS011;46567;51.660;5.824;2023-06-01T12:37:14;12.8;;;7.3;;
60718;SDS011;46567;51.660;5.824;2023-06-01T12:42:11;7.9;;;4.6;;
60718;SDS011;46567;51.660;5.824;2023-06-01T12:47:11;8.9;;;4.2;;
60718;SDS011;46567;51.660;5.824;2023-06-01T12:52:11;7.4;;;4.3;;
60718;SDS011;46567;51.660;5.824;2023-06-01T12:57:12;7.2;;;4.1;;
60718;SDS011;46567;51.660;5.824;2023-06-01T13:02:11;8.1;;;5.0;;
60718;SDS011;46567;51.660;5.824;2023-06-01T13:07:11;10.3;;;4.6;;
60718;SDS011;46567;51.660;5.824;2023-06-01T13:12:11;8.4;;;4.4;;
60718;SDS011;46567;51.660;5.824;2023-06-01T13:17:11;8.4;;;4.7;;
60718;SDS011;46567;51.660;5.824;2023-06-01T13:22:11;10.7;;;4.6;;
60718;SDS011;46567;51.660;5.824;2023-06-01T13:27:11;7.0;;;4.5;;
60718;SDS011;46567;51.660;5.824;2023-06-01T13:32:11;11.0;;;5.2;;
60718;SDS011;46567;51.660;5.824;2023-06-01T13:37:11;7.8;;;4.9;;
60718;SDS011;46567;51.660;5.824;2023-06-01T13:42:11;8.3;;;5.2;;
60718;SDS011;46567;51.660;5.824;2023-06-01T13:47:11;8.9;;;4.5;;
60718;SDS011;46567;51.660;5.824;2023-06-01T13:52:11;9.4;;;5.5;;
60718;SDS011;46567;51.660;5.824;2023-06-01T13:57:11;10.7;;;6.0;;
60718;SDS011;46567;51.660;5.824;2023-06-01T14:02:11;8.5;;;5.7;;
60718;SDS011;46567;51.660;5.824;2023-06-01T14:07:11;9.3;;;5.5;;
60718;SDS011;46567;51.660;5.824;2023-06-01T14:12:11;8.4;;;5.2;;
60718;SDS011;46567;51.660;5.824;2023-06-01T14:17:11;10.2;;;4.9;;
60718;SDS011;46567;51.660;5.824;2023-06-01T14:22:11;9.0;;;4.5;;
60718;SDS011;46567;51.660;5.824;2023-06-01T14:27:11;8.3;;;4.5;;
60718;SDS011;46567;51.660;5.824;2023-06-01T14:32:11;11.3;;;5.3;;
60718;SDS011;46567;51.660;5.824;2023-06-01T14:37:11;10.0;;;5.5;;
60718;SDS011;46567;51.660;5.824;2023-06-01T14:42:11;12.0;;;5.4;;
60718;SDS011;46567;51.660;5.824;2023-06-01T14:47:11;7.3;;;4.8;;
60718;SDS011;46567;51.660;5.824;2023-06-01T14:52:11;11.3;;;5.1;;
60718;SDS011;46567;51.660;5.824;2023-06-01T14:57:11;8.6;;;4.6;;
60718;SDS011;46567;51.660;5.824;2023-06-01T15:02:11;7.9;;;4.8;;
60718;SDS011;46567;51.660;5.824;2023-06-01T15:07:11;10.2;;;5.0;;
60718;SDS011;46567;51.660;5.824;2023-06-01T15:12:11;7.6;;;4.6;;
60718;SDS011;46567;51.660;5.824;2023-06-01T15:17:11;7.8;;;4.3;;
60718;SDS011;46567;51.660;5.824;2023-06-01T15:22:11;7.4;;;4.8;;
60718;SDS011;46567;51.660;5.824;2023-06-01T15:27:11;6.8;;;4.6;;
60718;SDS011;46567;51.660;5.824;2023-06-01T15:32:11;8.6;;;4.3;;
60718;SDS011;46567;51.660;5.824;2023-06-01T15:37:11;8.0;;;4.2;;
60718;SDS011;46567;51.660;5.824;2023-06-01T15:42:11;6.8;;;4.0;;
60718;SDS011;46567;51.660;5.824;2023-06-01T15:47:11;8.9;;;4.7;;
60718;SDS011;46567;51.660;5.824;2023-06-01T15:52:11;7.2;;;4.0;;
60718;SDS011;46567;51.660;5.824;2023-06-01T15:57:11;9.7;;;4.1;;
60718;SDS011;46567;51.660;5.824;2023-06-01T16:02:11;7.4;;;4.1;;
60718;SDS011;46567;51.660;5.824;2023-06-01T16:07:11;7.2;;;3.7;;
60718;SDS011;46567;51.660;5.824;2023-06-01T16:12:11;8.5;;;3.9;;
60718;SDS011;46567;51.660;5.824;2023-06-01T16:17:11;8.8;;;3.5;;
60718;SDS011;46567;51.660;5.824;2023-06-01T16:22:11;6.9;;;3.3;;
60718;SDS011;46567;51.660;5.824;2023-06-01T16:27:11;8.3;;;3.8;;
60718;SDS011;46567;51.660;5.824;2023-06-01T16:32:11;6.5;;;3.7;;
60718;SDS011;46567;51.660;5.824;2023-06-01T16:37:11;7.2;;;3.3;;
60718;SDS011;46567;51.660;5.824;2023-06-01T16:42:11;4.9;;;3.4;;
60718;SDS011;46567;51.660;5.824;2023-06-01T16:47:11;5.6;;;3.1;;
60718;SDS011;46567;51.660;5.824;2023-06-01T16:52:11;6.2;;;3.2;;
60718;SDS011;46567;51.660;5.824;2023-06-01T16:57:11;7.8;;;3.3;;
60718;SDS011;46567;51.660;5.824;2023-06-01T17:02:11;5.7;;;3.3;;
60718;SDS011;46567;51.660;5.824;2023-06-01T17:07:11;4.7;;;3.2;;
60718;SDS011;46567;51.660;5.824;2023-06-01T17:12:11;7.4;;;3.0;;
60718;SDS011;46567;51.660;5.824;2023-06-01T17:17:11;7.3;;;2.8;;
60718;SDS011;46567;51.660;5.824;2023-06-01T17:22:11;8.2;;;2.8;;
60718;SDS011;46567;51.660;5.824;2023-06-01T17:27:11;7.2;;;3.0;;
60718;SDS011;46567;51.660;5.824;2023-06-01T17:32:11;4.3;;;2.2;;
60718;SDS011;46567;51.660;5.824;2023-06-01T17:37:11;3.3;;;2.5;;
60718;SDS011;46567;51.660;5.824;2023-06-01T17:42:11;6.4;;;2.4;;
60718;SDS011;46567;51.660;5.824;2023-06-01T17:47:11;4.9;;;2.6;;
60718;SDS011;46567;51.660;5.824;2023-06-01T17:52:11;4.7;;;2.5;;
60718;SDS011;46567;51.660;5.824;2023-06-01T17:57:11;4.3;;;2.5;;
60718;SDS011;46567;51.660;5.824;2023-06-01T18:02:11;6.2;;;2.5;;
60718;SDS011;46567;51.660;5.824;2023-06-01T18:07:11;4.8;;;2.7;;
60718;SDS011;46567;51.660;5.824;2023-06-01T18:12:11;4.5;;;2.8;;
60718;SDS011;46567;51.660;5.824;2023-06-01T18:17:11;6.4;;;2.5;;
60718;SDS011;46567;51.660;5.824;2023-06-01T18:22:11;4.8;;;2.4;;
60718;SDS011;46567;51.660;5.824;2023-06-01T18:27:11;3.9;;;2.5;;
60718;SDS011;46567;51.660;5.824;2023-06-01T18:32:11;5.3;;;2.2;;
60718;SDS011;46567;51.660;5.824;2023-06-01T18:37:11;3.7;;;2.1;;
60718;SDS011;46567;51.660;5.824;2023-06-01T18:42:11;5.2;;;2.7;;
60718;SDS011;46567;51.660;5.824;2023-06-01T18:47:11;6.3;;;2.6;;
60718;SDS011;46567;51.660;5.824;2023-06-01T18:52:11;4.8;;;2.6;;
60718;SDS011;46567;51.660;5.824;2023-06-01T18:57:11;5.4;;;2.7;;
60718;SDS011;46567;51.660;5.824;2023-06-01T19:02:11;7.0;;;2.8;;
60718;SDS011;46567;51.660;5.824;2023-06-01T19:07:35;5.8;;;2.7;;
60718;SDS011;46567;51.660;5.824;2023-06-01T19:12:11;10.9;;;2.9;;
60718;SDS011;46567;51.660;5.824;2023-06-01T19:17:11;6.8;;;3.4;;
60718;SDS011;46567;51.660;5.824;2023-06-01T19:22:12;8.9;;;2.9;;
60718;SDS011;46567;51.660;5.824;2023-06-01T19:27:11;7.2;;;2.7;;
60718;SDS011;46567;51.660;5.824;2023-06-01T19:32:11;7.2;;;3.3;;
60718;SDS011;46567;51.660;5.824;2023-06-01T19:37:11;8.1;;;3.2;;
60718;SDS011;46567;51.660;5.824;2023-06-01T19:42:34;5.1;;;2.7;;
60718;SDS011;46567;51.660;5.824;2023-06-01T19:47:17;6.6;;;3.2;;
60718;SDS011;46567;51.660;5.824;2023-06-01T19:52:11;5.6;;;3.2;;
60718;SDS011;46567;51.660;5.824;2023-06-01T19:57:11;4.9;;;3.1;;
60718;SDS011;46567;51.660;5.824;2023-06-01T20:02:43;5.5;;;2.5;;
60718;SDS011;46567;51.660;5.824;2023-06-01T20:07:11;6.9;;;2.9;;
60718;SDS011;46567;51.660;5.824;2023-06-01T20:12:11;5.4;;;2.9;;
60718;SDS011;46567;51.660;5.824;2023-06-01T20:17:11;4.6;;;3.1;;
60718;SDS011;46567;51.660;5.824;2023-06-01T20:22:11;6.7;;;3.0;;
60718;SDS011;46567;51.660;5.824;2023-06-01T20:27:11;5.7;;;3.4;;
60718;SDS011;46567;51.660;5.824;2023-06-01T20:32:11;5.3;;;3.2;;
60718;SDS011;46567;51.660;5.824;2023-06-01T20:37:11;4.0;;;3.0;;
60718;SDS011;46567;51.660;5.824;2023-06-01T20:42:11;11.1;;;3.5;;
60718;SDS011;46567;51.660;5.824;2023-06-01T20:47:11;6.6;;;3.2;;
60718;SDS011;46567;51.660;5.824;2023-06-01T20:52:11;5.4;;;3.0;;
60718;SDS011;46567;51.660;5.824;2023-06-01T20:57:11;4.0;;;2.9;;
60718;SDS011;46567;51.660;5.824;2023-06-01T21:02:12;4.7;;;3.0;;
60718;SDS011;46567;51.660;5.824;2023-06-01T21:07:11;6.2;;;3.4;;
60718;SDS011;46567;51.660;5.824;2023-06-01T21:12:11;5.1;;;3.3;;
60718;SDS011;46567;51.660;5.824;2023-06-01T21:17:11;4.4;;;3.1;;
60718;SDS011;46567;51.660;5.824;2023-06-01T21:22:11;6.2;;;3.2;;
60718;SDS011;46567;51.660;5.824;2023-06-01T21:27:11;3.7;;;2.7;;
60718;SDS011;46567;51.660;5.824;2023-06-01T21:32:11;4.7;;;2.6;;
60718;SDS011;46567;51.660;5.824;2023-06-01T21:37:11;5.2;;;3.1;;
60718;SDS011;46567;51.660;5.824;2023-06-01T21:42:11;6.1;;;2.8;;
60718;SDS011;46567;51.660;5.824;2023-06-01T21:47:11;5.1;;;2.6;;
60718;SDS011;46567;51.660;5.824;2023-06-01T21:52:11;6.6;;;2.4;;
60718;SDS011;46567;51.660;5.824;2023-06-01T21:57:11;5.3;;;2.6;;
60718;SDS011;46567;51.660;5.824;2023-06-01T22:02:11;3.8;;;2.4;;
60718;SDS011;46567;51.660;5.824;2023-06-01T22:07:11;4.0;;;2.5;;
60718;SDS011;46567;51.660;5.824;2023-06-01T22:12:11;5.1;;;2.6;;
60718;SDS011;46567;51.660;5.824;2023-06-01T22:17:11;6.3;;;2.6;;
60718;SDS011;46567;51.660;5.824;2023-06-01T22:22:11;6.3;;;3.1;;
60718;SDS011;46567;51.660;5.824;2023-06-01T22:27:11;4.7;;;3.0;;
60718;SDS011;46567;51.660;5.824;2023-06-01T22:32:11;5.3;;;2.9;;
60718;SDS011;46567;51.660;5.824;2023-06-01T22:37:11;6.6;;;2.7;;
60718;SDS011;46567;51.660;5.824;2023-06-01T22:42:11;5.7;;;2.6;;
60718;SDS011;46567;51.660;5.824;2023-06-01T22:47:11;5.6;;;2.8;;
60718;SDS011;46567;51.660;5.824;2023-06-01T22:52:11;9.0;;;2.9;;
60718;SDS011;46567;51.660;5.824;2023-06-01T22:57:11;6.6;;;3.0;;
60718;SDS011;46567;51.660;5.824;2023-06-01T23:02:11;7.6;;;3.1;;
60718;SDS011;46567;51.660;5.824;2023-06-01T23:07:11;10.3;;;3.3;;
60718;SDS011;46567;51.660;5.824;2023-06-01T23:12:11;7.3;;;3.4;;
60718;SDS011;46567;51.660;5.824;2023-06-01T23:17:11;15.1;;;3.3;;
60718;SDS011;46567;51.660;5.824;2023-06-01T23:22:11;8.9;;;3.6;;
60718;SDS011;46567;51.660;5.824;2023-06-01T23:27:11;10.8;;;3.3;;
60718;SDS011;46567;51.660;5.824;2023-06-01T23:32:11;5.1;;;2.9;;
60718;SDS011;46567;51.660;5.824;2023-06-01T23:37:11;7.3;;;3.3;;
60718;SDS011;46567;51.660;5.824;2023-06-01T23:42:11;8.9;;;3.2;;
60718;SDS011;46567;51.660;5.824;2023-06-01T23:47:11;8.5;;;3.5;;
60718;SDS011;46567;51.660;5.824;2023-06-01T23:52:11;6.2;;;3.3;;
60718;SDS011;46567;51.660;5.824;2023-06-01T23:57:11;5.8;;;2.9;;
